Time;durP1;ratioP1;P1;durP2;ratioP2;P2;SDS_P1;SDS_P2;PMS_P1;PMS_P2;Temp;Humidity;BMP_temperature;BMP_pressure;BME280_temperature;BME280_humidity;BME280_pressure;Samples;Min_cycle;Max_cycle;Signal;HPM_P1;HPM_P2
2021/07/22 00:01:34;;;;;;;12.02;6.38;;;24.00;87.90;;;;;;5096027;28;20480;-77
2021/07/22 00:04:00;;;;;;;10.82;6.10;;;23.80;87.70;;;;;;5095817;28;20031;-76
2021/07/22 00:06:26;;;;;;;12.23;6.00;;;23.80;87.60;;;;;;5095594;28;20472;-75
2021/07/22 00:08:52;;;;;;;10.65;6.47;;;23.80;87.30;;;;;;5095545;28;20039;-76
2021/07/22 00:11:18;;;;;;;10.55;6.05;;;23.70;87.50;;;;;;5095618;28;20020;-75
2021/07/22 00:13:43;;;;;;;12.35;6.30;;;23.50;88.20;;;;;;5095223;28;20504;-76
2021/07/22 00:16:14;;;;;;;10.55;6.10;;;23.30;89.40;;;;;;5095409;28;20118;-76
2021/07/22 00:18:40;;;;;;;13.45;6.00;;;23.30;89.60;;;;;;5095741;28;20052;-77
2021/07/22 00:21:06;;;;;;;11.13;5.68;;;23.30;90.00;;;;;;5095301;28;20070;-76
2021/07/22 00:23:32;;;;;;;10.45;6.18;;;23.30;89.90;;;;;;5095185;28;20131;-76
2021/07/22 00:26:03;;;;;;;10.98;6.22;;;23.40;89.50;;;;;;5077047;28;20020;-76
2021/07/22 00:28:28;;;;;;;12.02;6.15;;;23.30;89.80;;;;;;5095192;28;20510;-76
2021/07/22 00:30:54;;;;;;;13.73;6.35;;;23.40;89.40;;;;;;5095163;28;20024;-76
2021/07/22 00:33:20;;;;;;;11.23;6.13;;;23.50;89.10;;;;;;5095177;28;20084;-76
2021/07/22 00:35:46;;;;;;;9.77;5.97;;;23.50;88.80;;;;;;5094996;28;20028;-76
2021/07/22 00:38:11;;;;;;;9.82;6.18;;;23.50;88.90;;;;;;5094995;28;20020;-76
2021/07/22 00:40:44;;;;;;;14.88;6.00;;;23.50;88.40;;;;;;5076782;28;20020;-77
2021/07/22 00:43:10;;;;;;;12.38;6.45;;;23.30;88.90;;;;;;5095086;28;20020;-76
2021/07/22 00:45:35;;;;;;;12.57;6.50;;;23.20;89.40;;;;;;5094458;28;20020;-77
2021/07/22 00:48:01;;;;;;;14.45;7.30;;;22.90;90.30;;;;;;5094839;28;20031;-76
2021/07/22 00:50:28;;;;;;;10.63;6.35;;;22.90;90.50;;;;;;5094726;28;20024;-75
2021/07/22 00:52:54;;;;;;;15.18;6.32;;;23.00;90.30;;;;;;5094752;28;20053;-75
2021/07/22 00:55:27;;;;;;;13.43;6.57;;;23.10;89.50;;;;;;5094597;28;20020;-76
2021/07/22 00:57:53;;;;;;;10.32;6.30;;;23.00;90.00;;;;;;5094664;28;20484;-76
2021/07/22 01:00:20;;;;;;;13.90;7.28;;;22.70;90.60;;;;;;5094559;28;20042;-77
2021/07/22 01:02:46;;;;;;;11.77;6.22;;;22.50;91.00;;;;;;5094532;28;20028;-76
2021/07/22 01:05:11;;;;;;;11.80;6.97;;;22.30;91.80;;;;;;5094438;28;20085;-76
2021/07/22 01:07:37;;;;;;;13.88;7.07;;;22.40;91.60;;;;;;5094419;28;20030;-76
2021/07/22 01:10:04;;;;;;;10.68;6.70;;;22.50;91.60;;;;;;5094320;28;20046;-76
2021/07/22 01:12:30;;;;;;;11.10;6.50;;;22.70;91.20;;;;;;5094293;28;20031;-76
2021/07/22 01:14:56;;;;;;;13.20;6.57;;;23.00;90.50;;;;;;5093971;28;20432;-76
2021/07/22 01:17:28;;;;;;;10.68;6.40;;;23.00;90.10;;;;;;5094182;28;20020;-76
2021/07/22 01:19:54;;;;;;;10.82;6.40;;;22.40;90.60;;;;;;5094499;28;20023;-75
2021/07/22 01:22:19;;;;;;;9.77;5.88;;;22.40;90.90;;;;;;5076000;28;20020;-75
2021/07/22 01:24:45;;;;;;;11.38;6.10;;;22.40;91.10;;;;;;5094086;28;20074;-76
2021/07/22 01:27:11;;;;;;;10.27;6.15;;;22.40;91.30;;;;;;5094538;28;20031;-76
2021/07/22 01:29:37;;;;;;;10.93;5.93;;;22.30;91.00;;;;;;5094033;28;20050;-76
2021/07/22 01:32:04;;;;;;;10.73;6.30;;;22.10;91.50;;;;;;5093990;28;20028;-76
2021/07/22 01:34:30;;;;;;;9.40;5.78;;;22.30;91.20;;;;;;5093913;28;20020;-76
2021/07/22 01:36:56;;;;;;;11.23;6.40;;;22.10;91.80;;;;;;5093937;28;20498;-76
2021/07/22 01:39:22;;;;;;;13.75;6.53;;;22.10;91.80;;;;;;5094078;28;20379;-77
2021/07/22 01:41:47;;;;;;;10.88;6.70;;;22.00;92.30;;;;;;5093844;28;20024;-76
2021/07/22 01:44:15;;;;;;;10.15;6.50;;;22.00;92.60;;;;;;5093475;28;20023;-77
2021/07/22 01:46:40;;;;;;;11.70;7.03;;;22.30;92.20;;;;;;5093718;28;20453;-76
2021/07/22 01:49:06;;;;;;;11.30;7.05;;;22.10;92.50;;;;;;5093718;28;20108;-76
2021/07/22 01:51:33;;;;;;;12.48;7.20;;;22.00;92.60;;;;;;5094070;28;20145;-75
2021/07/22 01:53:59;;;;;;;11.50;7.13;;;21.80;93.00;;;;;;5093705;28;20059;-76
2021/07/22 01:56:25;;;;;;;15.25;7.22;;;21.90;92.80;;;;;;5093774;28;20020;-77
2021/07/22 01:58:51;;;;;;;13.38;7.30;;;22.10;92.60;;;;;;5093593;28;20013;-76
2021/07/22 02:01:16;;;;;;;13.02;7.07;;;22.30;92.10;;;;;;5093995;28;20396;-76
2021/07/22 02:03:42;;;;;;;10.40;6.60;;;22.40;91.90;;;;;;5075431;28;20020;-77
2021/07/22 02:06:09;;;;;;;10.35;6.22;;;22.40;91.80;;;;;;5093612;28;20052;-76
2021/07/22 02:08:35;;;;;;;11.18;6.78;;;22.50;91.50;;;;;;5093575;28;20094;-75
2021/07/22 02:11:05;;;;;;;12.05;6.20;;;22.50;91.30;;;;;;5093466;28;20472;-75
2021/07/22 02:13:31;;;;;;;11.18;6.22;;;22.40;91.20;;;;;;5093192;28;20062;-76
2021/07/22 02:15:57;;;;;;;10.90;5.72;;;22.40;90.90;;;;;;5093437;28;20496;-76
2021/07/22 02:18:23;;;;;;;13.73;5.95;;;22.40;90.90;;;;;;5093290;28;20419;-76
2021/07/22 02:20:49;;;;;;;11.20;6.03;;;22.30;91.00;;;;;;5093447;28;20020;-75
2021/07/22 02:23:15;;;;;;;9.85;5.60;;;22.20;91.20;;;;;;5093263;28;20027;-76
2021/07/22 02:25:41;;;;;;;11.05;6.68;;;22.00;91.50;;;;;;5075148;28;20024;-77
2021/07/22 02:28:07;;;;;;;11.45;6.38;;;21.60;92.20;;;;;;5093611;28;20051;-77
2021/07/22 02:30:33;;;;;;;9.80;6.28;;;21.50;92.60;;;;;;5093354;28;20032;-77
2021/07/22 02:32:59;;;;;;;12.40;6.43;;;21.40;93.00;;;;;;5093425;28;20061;-75
2021/07/22 02:35:25;;;;;;;13.10;6.78;;;21.60;92.70;;;;;;5093085;28;20031;-76
2021/07/22 02:37:50;;;;;;;15.77;6.65;;;21.80;92.20;;;;;;5093141;28;20044;-77
2021/07/22 02:40:16;;;;;;;14.27;6.70;;;21.80;92.00;;;;;;5093319;28;20035;-76
2021/07/22 02:42:42;;;;;;;10.35;6.80;;;21.70;92.30;;;;;;5093155;28;20091;-75
2021/07/22 02:45:09;;;;;;;11.15;7.10;;;21.50;92.90;;;;;;5093088;28;20028;-76
2021/07/22 02:47:35;;;;;;;11.02;7.45;;;21.50;93.00;;;;;;5093051;28;20023;-76
2021/07/22 02:50:01;;;;;;;20.15;6.95;;;21.60;92.70;;;;;;5075386;28;20032;-75
2021/07/22 02:52:26;;;;;;;13.25;7.05;;;21.50;92.90;;;;;;5093026;28;20081;-76
2021/07/22 02:54:52;;;;;;;16.08;7.18;;;21.20;93.40;;;;;;5092926;28;20113;-76
2021/07/22 02:57:18;;;;;;;10.63;6.20;;;21.30;93.60;;;;;;5095576;28;20016;-77
2021/07/22 02:59:43;;;;;;;12.20;7.05;;;21.40;93.30;;;;;;5097220;28;20051;-76
2021/07/22 03:02:09;;;;;;;9.93;6.55;;;21.60;92.80;;;;;;5096838;28;20106;-76
2021/07/22 03:04:35;;;;;;;12.23;7.10;;;21.50;92.70;;;;;;5078663;28;20032;-75
2021/07/22 03:07:01;;;;;;;10.98;7.07;;;21.30;93.20;;;;;;5096773;28;20073;-76
2021/07/22 03:09:26;;;;;;;12.25;6.95;;;20.90;93.90;;;;;;5096736;28;20032;-75
2021/07/22 03:11:52;;;;;;;13.38;7.13;;;20.90;94.40;;;;;;5096705;28;20039;-75
2021/07/22 03:14:18;;;;;;;11.07;6.43;;;21.30;93.50;;;;;;5096613;28;20040;-76
2021/07/22 03:16:43;;;;;;;12.73;6.38;;;21.40;92.90;;;;;;5096807;28;20379;-76
2021/07/22 03:19:09;;;;;;;11.80;7.05;;;21.40;92.70;;;;;;5096564;28;20031;-75
2021/07/22 03:21:35;;;;;;;11.73;6.80;;;21.40;92.70;;;;;;5096902;28;20023;-76
2021/07/22 03:24:01;;;;;;;13.75;7.20;;;21.10;93.20;;;;;;5096399;28;20024;-75
2021/07/22 03:26:27;;;;;;;12.35;7.40;;;20.90;93.80;;;;;;5096665;28;20058;-76
2021/07/22 03:28:53;;;;;;;11.73;7.30;;;20.80;94.10;;;;;;5096531;28;20427;-76
2021/07/22 03:31:19;;;;;;;11.38;6.93;;;21.00;93.90;;;;;;5078094;28;20031;-76
2021/07/22 03:33:44;;;;;;;11.15;6.50;;;21.20;93.40;;;;;;5096160;28;20024;-76
2021/07/22 03:36:10;;;;;;;13.38;7.63;;;21.10;93.50;;;;;;5096438;28;20198;-76
2021/07/22 03:38:36;;;;;;;11.27;7.18;;;20.90;93.70;;;;;;5096181;28;20095;-76
2021/07/22 03:41:01;;;;;;;10.60;7.15;;;20.70;94.10;;;;;;5096309;28;20024;-76
2021/07/22 03:43:27;;;;;;;13.45;6.93;;;20.60;94.30;;;;;;5096026;28;20488;-76
2021/07/22 03:45:58;;;;;;;12.30;7.30;;;20.90;94.00;;;;;;5096462;28;20089;-75
2021/07/22 03:48:24;;;;;;;10.10;5.60;;;21.10;93.40;;;;;;5077866;28;20028;-76
2021/07/22 03:50:50;;;;;;;10.57;6.63;;;21.10;92.70;;;;;;5095922;28;20107;-76
2021/07/22 03:53:16;;;;;;;10.25;6.82;;;21.10;93.00;;;;;;5095599;28;20543;-77
2021/07/22 03:55:41;;;;;;;12.07;7.00;;;21.00;92.90;;;;;;5095774;28;20050;-75
2021/07/22 03:58:07;;;;;;;12.80;7.40;;;20.70;93.50;;;;;;5095997;28;20020;-76
2021/07/22 04:00:33;;;;;;;13.43;7.80;;;20.50;93.90;;;;;;5095715;28;20066;-76
2021/07/22 04:03:04;;;;;;;11.85;6.97;;;20.70;93.70;;;;;;5095707;28;20023;-76
2021/07/22 04:05:30;;;;;;;11.55;5.55;;;20.80;93.10;;;;;;5095692;28;20028;-74
2021/07/22 04:07:59;;;;;;;10.07;5.57;;;20.50;93.60;;;;;;5077089;28;20032;-76
2021/07/22 04:10:28;;;;;;;9.85;5.30;;;20.40;93.40;;;;;;5095508;28;20016;-76
2021/07/22 04:12:55;;;;;;;10.13;5.35;;;20.30;93.50;;;;;;5095526;28;20024;-76
2021/07/22 04:15:23;;;;;;;10.02;5.45;;;20.30;93.50;;;;;;5094988;28;20040;-76
2021/07/22 04:17:52;;;;;;;13.45;6.60;;;20.20;93.60;;;;;;5077235;28;20028;-76
2021/07/22 04:20:19;;;;;;;11.48;6.53;;;20.40;93.80;;;;;;5095366;28;20173;-76
2021/07/22 04:22:45;;;;;;;10.65;6.57;;;20.20;94.10;;;;;;5095240;28;20095;-76
2021/07/22 04:25:11;;;;;;;11.80;7.30;;;20.10;94.40;;;;;;5095169;28;20093;-75
2021/07/22 04:27:37;;;;;;;13.27;7.38;;;20.30;94.40;;;;;;5095445;28;20103;-75
2021/07/22 04:30:03;;;;;;;12.25;6.97;;;20.50;94.00;;;;;;5095298;28;20539;-75
2021/07/22 04:32:29;;;;;;;9.43;5.63;;;20.70;93.30;;;;;;5094701;28;20063;-76
2021/07/22 04:34:54;;;;;;;9.88;4.97;;;20.70;92.50;;;;;;5094947;28;20055;-76
2021/07/22 04:37:20;;;;;;;11.55;5.18;;;20.60;92.30;;;;;;5095520;28;20095;-76
2021/07/22 04:39:46;;;;;;;11.20;5.95;;;20.50;92.30;;;;;;5095146;28;20380;-76
2021/07/22 04:42:12;;;;;;;13.38;6.32;;;20.30;92.90;;;;;;5094941;28;20023;-76
2021/07/22 04:44:37;;;;;;;12.50;6.78;;;20.30;93.20;;;;;;5094929;28;20054;-75
2021/07/22 04:47:03;;;;;;;14.85;6.30;;;20.30;93.00;;;;;;5094840;28;20035;-76
2021/07/22 04:49:29;;;;;;;11.65;6.15;;;20.40;92.70;;;;;;5094983;28;20020;-75
2021/07/22 04:51:58;;;;;;;9.73;5.80;;;20.50;92.30;;;;;;5094716;28;20560;-75
2021/07/22 04:54:24;;;;;;;12.93;6.32;;;20.30;92.70;;;;;;5094631;28;20024;-75
2021/07/22 04:56:50;;;;;;;12.55;6.15;;;20.40;92.70;;;;;;5094672;28;20114;-76
2021/07/22 04:59:15;;;;;;;12.45;5.88;;;20.50;92.50;;;;;;5094519;28;20025;-77
2021/07/22 05:01:41;;;;;;;14.25;6.03;;;20.50;92.40;;;;;;5094748;28;20099;-76
2021/07/22 05:04:07;;;;;;;13.48;5.68;;;20.40;92.40;;;;;;5094536;28;20024;-76
2021/07/22 05:06:34;;;;;;;12.05;6.22;;;20.40;92.60;;;;;;5094579;28;20028;-76
2021/07/22 05:09:00;;;;;;;12.00;5.95;;;20.50;92.50;;;;;;5094389;28;20028;-76
2021/07/22 05:11:26;;;;;;;14.45;6.28;;;20.50;92.40;;;;;;5094326;28;20039;-77
2021/07/22 05:13:52;;;;;;;9.55;5.63;;;20.50;92.40;;;;;;5094445;28;20052;-76
2021/07/22 05:16:20;;;;;;;13.20;6.38;;;20.50;92.40;;;;;;5094323;28;20049;-76
2021/07/22 05:18:46;;;;;;;16.00;7.18;;;20.50;92.50;;;;;;5093706;28;20020;-75
2021/07/22 05:21:13;;;;;;;13.10;6.50;;;20.60;92.40;;;;;;5094022;28;20016;-77
2021/07/22 05:23:41;;;;;;;14.68;6.75;;;20.60;92.50;;;;;;5094112;28;20047;-76
2021/07/22 05:26:10;;;;;;;11.38;6.40;;;20.30;92.80;;;;;;5094088;28;20399;-76
2021/07/22 05:28:37;;;;;;;12.88;6.00;;;20.20;93.60;;;;;;5075884;28;20506;-75
2021/07/22 05:31:12;;;;;;;10.88;5.15;;;20.40;93.00;;;;;;5093986;28;20079;-74
2021/07/22 05:33:41;;;;;;;10.45;5.20;;;20.60;92.50;;;;;;5094448;28;20472;-77
2021/07/22 05:36:08;;;;;;;16.58;5.63;;;20.70;92.20;;;;;;5093806;28;20043;-76
2021/07/22 05:38:36;;;;;;;8.95;5.10;;;20.80;92.00;;;;;;5093808;28;20042;-77
2021/07/22 05:41:04;;;;;;;10.07;5.90;;;20.70;92.30;;;;;;5093844;28;20020;-76
2021/07/22 05:43:30;;;;;;;11.07;5.78;;;20.90;92.20;;;;;;5093745;28;20023;-75
2021/07/22 05:45:57;;;;;;;12.07;6.55;;;20.80;92.50;;;;;;5093678;28;20426;-76
2021/07/22 05:48:23;;;;;;;13.10;7.03;;;20.90;92.80;;;;;;5093678;28;20028;-75
2021/07/22 05:50:49;;;;;;;11.73;7.43;;;21.00;93.00;;;;;;5093853;28;20022;-77
2021/07/22 05:53:16;;;;;;;13.57;8.27;;;21.30;92.60;;;;;;5093733;28;20020;-76
2021/07/22 05:55:42;;;;;;;13.52;7.20;;;21.40;92.10;;;;;;5093552;28;20567;-75
2021/07/22 05:58:07;;;;;;;16.33;7.18;;;21.40;91.90;;;;;;5075439;28;20115;-76
2021/07/22 06:00:33;;;;;;;12.35;6.90;;;21.40;91.90;;;;;;5093542;28;20047;-76
2021/07/22 06:02:59;;;;;;;13.05;7.15;;;21.40;92.10;;;;;;5093466;28;20410;-76
2021/07/22 06:05:25;;;;;;;17.88;8.00;;;21.50;91.90;;;;;;5093428;28;20020;-76
2021/07/22 06:07:51;;;;;;;12.65;6.93;;;21.50;91.90;;;;;;5075325;28;20024;-76
2021/07/22 06:10:16;;;;;;;13.82;7.47;;;21.60;92.00;;;;;;5075368;28;20058;-75
2021/07/22 06:12:42;;;;;;;11.68;7.13;;;21.70;91.70;;;;;;5093749;28;20395;-75
2021/07/22 06:15:10;;;;;;;14.68;7.60;;;21.90;91.50;;;;;;5092981;28;20115;-76
2021/07/22 06:17:37;;;;;;;16.50;7.28;;;22.00;91.60;;;;;;5093409;28;20078;-76
2021/07/22 06:20:06;;;;;;;11.38;7.38;;;22.00;91.70;;;;;;5093285;28;20494;-75
2021/07/22 06:22:34;;;;;;;17.80;8.00;;;22.20;91.60;;;;;;5093366;28;20028;-76
2021/07/22 06:25:00;;;;;;;14.98;7.82;;;22.50;91.20;;;;;;5093247;28;20103;-76
2021/07/22 06:27:26;;;;;;;12.20;7.63;;;22.50;90.90;;;;;;5093506;28;20456;-76
2021/07/22 06:29:51;;;;;;;15.10;8.10;;;22.60;90.80;;;;;;5093203;28;20537;-76
2021/07/22 06:32:17;;;;;;;12.25;7.40;;;22.50;91.00;;;;;;5097463;28;20032;-76
2021/07/22 06:34:43;;;;;;;18.10;7.85;;;22.60;91.10;;;;;;5097305;28;20023;-76
2021/07/22 06:37:09;;;;;;;14.52;7.53;;;22.70;91.00;;;;;;5079105;28;20070;-76
2021/07/22 06:39:35;;;;;;;16.48;7.53;;;22.90;91.30;;;;;;5079091;28;20070;-76
2021/07/22 06:42:04;;;;;;;13.55;7.60;;;23.00;90.90;;;;;;5097283;28;20016;-76
2021/07/22 06:44:30;;;;;;;14.48;8.30;;;23.10;90.70;;;;;;5097182;28;20020;-76
2021/07/22 06:46:56;;;;;;;13.65;7.78;;;23.20;90.80;;;;;;5097316;28;20024;-76
2021/07/22 06:49:22;;;;;;;14.27;7.93;;;22.90;91.30;;;;;;5097104;28;20072;-76
2021/07/22 06:51:48;;;;;;;16.40;9.07;;;23.20;91.20;;;;;;5097039;28;20032;-77
2021/07/22 06:54:14;;;;;;;14.38;8.65;;;23.10;91.00;;;;;;5096908;28;20020;-76
2021/07/22 06:56:40;;;;;;;12.50;7.88;;;23.30;91.20;;;;;;5096959;28;20442;-77
2021/07/22 06:59:06;;;;;;;15.82;8.55;;;23.70;91.00;;;;;;5078719;28;20028;-77
2021/07/22 07:01:32;;;;;;;14.52;8.05;;;23.80;90.70;;;;;;5096560;28;20028;-77
2021/07/22 07:03:58;;;;;;;13.52;7.93;;;23.90;90.60;;;;;;5096861;28;20016;-77
2021/07/22 07:06:23;;;;;;;15.82;8.23;;;24.00;90.60;;;;;;5096803;28;20491;-75
2021/07/22 07:08:49;;;;;;;13.80;8.73;;;23.90;90.50;;;;;;5096743;28;20036;-77
2021/07/22 07:11:15;;;;;;;15.75;9.18;;;23.90;90.80;;;;;;5096973;28;20051;-76
2021/07/22 07:13:40;;;;;;;18.05;9.10;;;24.10;90.30;;;;;;5096497;28;20071;-75
2021/07/22 07:16:07;;;;;;;15.32;9.23;;;24.10;90.00;;;;;;5078123;28;20032;-76
2021/07/22 07:18:33;;;;;;;20.17;9.45;;;24.20;88.70;;;;;;5096975;28;20044;-77
2021/07/22 07:21:03;;;;;;;17.30;8.98;;;24.30;87.80;;;;;;5096506;28;20016;-76
2021/07/22 07:23:30;;;;;;;17.20;9.00;;;24.50;87.00;;;;;;5096457;28;20043;-77
2021/07/22 07:25:55;;;;;;;18.67;8.73;;;24.50;86.00;;;;;;5096438;28;20484;-74
2021/07/22 07:28:21;;;;;;;15.40;9.00;;;24.60;86.30;;;;;;5096450;28;20031;-76
2021/07/22 07:30:47;;;;;;;16.17;8.80;;;24.70;83.90;;;;;;5078244;28;20032;-76
2021/07/22 07:33:13;;;;;;;15.43;8.10;;;25.00;83.10;;;;;;5078102;28;20512;-76
2021/07/22 07:35:39;;;;;;;20.40;8.95;;;25.70;79.30;;;;;;5096196;28;20032;-76
2021/07/22 07:38:06;;;;;;;17.75;8.80;;;26.40;76.70;;;;;;5096185;28;20008;-76
2021/07/22 07:40:32;;;;;;;19.70;8.70;;;27.10;74.30;;;;;;5096170;28;20024;-76
2021/07/22 07:42:58;;;;;;;15.98;8.57;;;28.10;72.10;;;;;;5095336;28;20023;-76
2021/07/22 07:45:27;;;;;;;18.90;8.90;;;28.70;68.90;;;;;;5096114;28;20387;-76
2021/07/22 07:47:53;;;;;;;16.02;8.63;;;29.10;67.30;;;;;;5096028;28;20095;-76
2021/07/22 07:50:19;;;;;;;15.82;9.00;;;29.20;65.80;;;;;;5077828;28;20510;-75
2021/07/22 07:52:46;;;;;;;20.63;9.18;;;29.70;64.50;;;;;;5095900;28;20020;-76
2021/07/22 07:55:12;;;;;;;19.90;8.82;;;29.80;62.70;;;;;;5095799;28;20031;-75
2021/07/22 07:57:38;;;;;;;20.50;8.43;;;30.10;63.10;;;;;;5095933;28;20052;-76
2021/07/22 08:00:06;;;;;;;15.27;8.65;;;30.40;62.50;;;;;;5095718;28;20024;-77
2021/07/22 08:02:32;;;;;;;18.48;8.88;;;30.70;60.40;;;;;;5077552;28;20048;-76
2021/07/22 08:04:58;;;;;;;21.52;9.27;;;30.70;60.00;;;;;;5077523;28;20491;-77
2021/07/22 08:07:24;;;;;;;18.55;9.10;;;30.70;59.60;;;;;;5095645;28;20028;-76
2021/07/22 08:09:51;;;;;;;18.27;9.75;;;30.90;59.80;;;;;;5095879;28;20060;-77
2021/07/22 08:12:17;;;;;;;17.95;9.27;;;31.00;59.60;;;;;;5095532;28;20046;-76
2021/07/22 08:14:43;;;;;;;18.15;9.02;;;31.30;58.50;;;;;;5095175;28;20054;-77
2021/07/22 08:17:14;;;;;;;22.00;9.63;;;31.20;59.10;;;;;;5095465;28;20087;-77
2021/07/22 08:19:40;;;;;;;17.38;9.07;;;31.60;58.70;;;;;;5095492;28;20076;-77
2021/07/22 08:22:06;;;;;;;17.88;9.95;;;31.70;58.40;;;;;;5095301;28;20016;-77
2021/07/22 08:24:32;;;;;;;16.73;10.38;;;31.20;55.40;;;;;;5076984;28;20031;-76
2021/07/22 08:26:58;;;;;;;20.38;9.85;;;31.00;56.90;;;;;;5095571;28;20023;-76
2021/07/22 08:29:23;;;;;;;16.17;10.02;;;30.30;58.90;;;;;;5077216;28;20028;-77
2021/07/22 08:31:49;;;;;;;21.50;9.88;;;30.80;59.80;;;;;;5076992;28;20020;-77
2021/07/22 08:34:17;;;;;;;17.02;9.90;;;31.30;58.30;;;;;;5094944;28;20031;-77
2021/07/22 08:36:43;;;;;;;16.88;10.13;;;31.90;57.20;;;;;;5095060;28;20016;-77
2021/07/22 08:39:09;;;;;;;18.83;10.13;;;31.90;54.30;;;;;;5095008;28;20024;-76
2021/07/22 08:41:35;;;;;;;21.38;10.25;;;32.00;55.40;;;;;;5094965;28;20518;-76
2021/07/22 08:44:06;;;;;;;18.83;10.15;;;32.10;53.30;;;;;;5094879;28;20054;-76
2021/07/22 08:46:34;;;;;;;21.25;10.05;;;31.90;53.50;;;;;;5095073;28;20055;-77
2021/07/22 08:49:00;;;;;;;21.83;11.05;;;31.90;52.80;;;;;;5094685;28;20028;-76
2021/07/22 08:51:27;;;;;;;21.13;10.55;;;31.80;54.10;;;;;;5094811;28;20017;-76
2021/07/22 08:53:53;;;;;;;17.52;9.93;;;31.70;54.10;;;;;;5093817;28;20076;-78
2021/07/22 08:56:25;;;;;;;19.55;10.82;;;32.40;52.90;;;;;;5094470;28;20099;-76
2021/07/22 08:58:51;;;;;;;19.08;10.55;;;32.90;52.00;;;;;;5094586;28;20043;-77
2021/07/22 09:01:19;;;;;;;16.10;10.40;;;33.10;51.70;;;;;;5094485;28;20025;-76
2021/07/22 09:03:45;;;;;;;19.13;10.88;;;33.60;50.30;;;;;;5094422;28;20024;-76
2021/07/22 09:06:15;;;;;;;18.13;10.57;;;33.20;50.00;;;;;;5094445;28;20523;-76
2021/07/22 09:08:41;;;;;;;19.63;10.68;;;33.20;49.70;;;;;;5094344;28;20023;-76
2021/07/22 09:11:09;;;;;;;20.40;10.10;;;33.00;50.80;;;;;;5094288;28;20031;-76
2021/07/22 09:13:36;;;;;;;18.17;10.98;;;33.10;49.20;;;;;;5072561;28;20048;-75
2021/07/22 09:16:02;;;;;;;22.60;10.35;;;33.40;49.20;;;;;;5073774;28;20039;-77
2021/07/22 09:18:31;;;;;;;24.30;10.93;;;33.20;49.30;;;;;;5074003;28;20016;-77
2021/07/22 09:20:57;;;;;;;18.80;11.27;;;33.20;50.10;;;;;;5074193;28;20024;-76
2021/07/22 09:23:27;;;;;;;26.48;10.48;;;33.50;49.10;;;;;;5073831;28;20029;-78
2021/07/22 09:25:56;;;;;;;18.75;10.70;;;34.00;48.30;;;;;;5073837;28;20025;-77
2021/07/22 09:28:26;;;;;;;17.13;10.10;;;34.00;49.70;;;;;;5072516;28;20020;-77
2021/07/22 09:31:00;;;;;;;20.23;10.40;;;33.80;48.50;;;;;;5074055;28;20035;-77
2021/07/22 09:33:46;;;;;;;21.52;12.82;;;34.30;47.90;;;;;;5074139;28;20048;-77
2021/07/22 09:36:18;;;;;;;15.35;9.60;;;34.70;47.80;;;;;;5072025;28;20401;-76
2021/07/22 09:38:44;;;;;;;17.83;10.25;;;35.00;46.30;;;;;;5073613;28;20452;-77
2021/07/22 09:41:21;;;;;;;19.13;9.80;;;35.20;45.60;;;;;;5073625;28;20031;-77
2021/07/22 09:43:47;;;;;;;17.45;9.65;;;35.30;45.00;;;;;;5072507;28;20120;-77
2021/07/22 09:46:14;;;;;;;18.52;9.70;;;35.80;45.50;;;;;;5073625;28;20474;-77
2021/07/22 09:49:09;;;;;;;22.25;10.98;;;36.00;44.50;;;;;;5073551;28;20099;-77
2021/07/22 09:51:36;;;;;;;16.88;9.63;;;36.20;43.60;;;;;;5073620;28;20469;-76
2021/07/22 09:54:12;;;;;;;16.90;10.40;;;36.20;44.30;;;;;;5073356;28;20440;-76
2021/07/22 09:56:39;;;;;;;15.75;9.75;;;36.60;43.30;;;;;;5071901;28;20029;-76
2021/07/22 09:59:06;;;;;;;18.35;10.10;;;36.40;44.20;;;;;;5072092;28;20021;-77
2021/07/22 10:01:42;;;;;;;17.30;10.20;;;36.40;44.00;;;;;;5073345;28;20036;-77
2021/07/22 10:04:09;;;;;;;17.80;10.20;;;36.30;43.70;;;;;;5073367;28;20508;-77
2021/07/22 10:06:37;;;;;;;17.40;10.15;;;36.20;43.60;;;;;;5073013;28;20052;-77
2021/07/22 10:09:04;;;;;;;23.67;10.18;;;37.00;42.90;;;;;;5073306;28;20404;-76
2021/07/22 10:11:31;;;;;;;20.88;10.52;;;37.20;42.60;;;;;;5072007;28;20485;-77
2021/07/22 10:13:58;;;;;;;19.65;10.15;;;37.90;41.50;;;;;;5080071;28;20044;-77
2021/07/22 10:16:26;;;;;;;20.58;10.48;;;38.20;40.50;;;;;;5093605;28;20044;-78
2021/07/22 10:18:58;;;;;;;18.85;10.30;;;38.50;41.50;;;;;;5093353;28;20017;-77
2021/07/22 10:21:25;;;;;;;19.05;10.07;;;39.00;39.50;;;;;;5093529;28;20464;-77
2021/07/22 10:23:52;;;;;;;23.60;10.48;;;39.30;39.20;;;;;;5093210;28;20016;-76
2021/07/22 10:26:22;;;;;;;20.77;10.13;;;39.50;38.50;;;;;;5093050;28;20028;-78
2021/07/22 10:28:49;;;;;;;17.95;10.13;;;39.80;38.50;;;;;;5093222;28;20484;-77
2021/07/22 10:31:16;;;;;;;20.60;10.55;;;39.70;39.00;;;;;;5093267;28;20032;-77
2021/07/22 10:33:44;;;;;;;13.50;9.93;;;39.70;37.70;;;;;;5075085;28;20077;-79
2021/07/22 10:36:11;;;;;;;17.10;10.77;;;40.10;38.10;;;;;;5093096;28;20069;-77
2021/07/22 10:38:49;;;;;;;21.15;10.02;;;40.50;36.90;;;;;;5093121;28;20017;-75
2021/07/22 10:41:36;;;;;;;18.05;10.68;;;41.20;36.50;;;;;;5093592;28;20051;-74
2021/07/22 10:44:06;;;;;;;14.30;10.00;;;41.20;36.00;;;;;;5093391;28;20515;-75
2021/07/22 10:47:02;;;;;;;16.60;10.27;;;41.50;36.60;;;;;;5093500;28;20058;-74
2021/07/22 10:49:43;;;;;;;17.73;10.57;;;40.90;35.30;;;;;;5075029;28;20438;-77
2021/07/22 10:52:12;;;;;;;17.73;10.25;;;41.70;35.30;;;;;;5093273;28;20111;-75
2021/07/22 10:54:41;;;;;;;15.25;9.63;;;41.20;35.90;;;;;;5093106;28;20035;-75
2021/07/22 10:57:27;;;;;;;13.52;9.00;;;40.70;37.20;;;;;;5092992;28;20043;-76
2021/07/22 10:59:55;;;;;;;17.98;9.05;;;41.10;35.50;;;;;;5092811;28;20069;-75
2021/07/22 11:02:40;;;;;;;13.85;9.32;;;41.70;34.70;;;;;;5093099;28;20502;-76
2021/07/22 11:05:05;;;;;;;15.27;9.57;;;41.40;35.20;;;;;;5092994;28;20028;-76
2021/07/22 11:07:31;;;;;;;15.65;9.95;;;41.90;36.00;;;;;;5092953;28;20032;-77
2021/07/22 11:10:00;;;;;;;22.05;10.10;;;41.80;35.90;;;;;;5092848;28;20020;-75
2021/07/22 11:12:44;;;;;;;16.67;10.00;;;41.70;35.50;;;;;;5092821;28;20552;-75
2021/07/22 11:15:17;;;;;;;14.98;9.10;;;41.10;36.60;;;;;;5092518;28;20040;-75
2021/07/22 11:17:45;;;;;;;16.48;9.82;;;40.10;36.30;;;;;;5094226;28;20035;-74
2021/07/22 11:20:19;;;;;;;13.07;8.30;;;40.40;37.30;;;;;;5096681;28;20023;-76
2021/07/22 11:22:46;;;;;;;11.60;8.02;;;41.00;36.50;;;;;;5078282;28;20020;-76
2021/07/22 11:25:13;;;;;;;13.50;7.50;;;41.00;36.00;;;;;;5096385;28;20020;-77
2021/07/22 11:27:48;;;;;;;14.75;7.45;;;41.10;35.50;;;;;;5078188;28;20032;-75
2021/07/22 11:30:16;;;;;;;12.38;7.32;;;40.70;35.20;;;;;;5096449;28;20025;-75
2021/07/22 11:32:42;;;;;;;18.08;7.78;;;40.20;35.80;;;;;;5078064;28;20556;-76
2021/07/22 11:35:09;;;;;;;17.15;9.52;;;40.50;37.40;;;;;;5096209;28;20024;-74
2021/07/22 11:37:35;;;;;;;16.58;7.80;;;40.60;35.70;;;;;;5096272;28;20125;-75
2021/07/22 11:40:09;;;;;;;17.42;8.43;;;40.60;35.80;;;;;;5096139;28;20488;-75
2021/07/22 11:42:47;;;;;;;14.85;7.60;;;41.20;34.60;;;;;;5096189;28;20017;-75
2021/07/22 11:45:13;;;;;;;15.70;7.80;;;41.10;35.60;;;;;;5096285;28;20020;-75
2021/07/22 11:47:39;;;;;;;15.65;8.35;;;41.10;36.00;;;;;;5096263;28;20361;-75
2021/07/22 11:50:06;;;;;;;23.25;8.82;;;41.30;34.50;;;;;;5095937;28;20432;-73
2021/07/22 11:52:31;;;;;;;12.50;6.90;;;40.40;35.70;;;;;;5095916;28;20035;-74
2021/07/22 11:55:05;;;;;;;14.48;7.65;;;39.80;36.10;;;;;;5095833;28;20028;-75
2021/07/22 11:57:35;;;;;;;16.30;7.38;;;39.10;37.40;;;;;;5095877;28;20473;-76
2021/07/22 12:00:14;;;;;;;14.45;7.45;;;39.40;38.20;;;;;;5077607;28;20020;-76
2021/07/22 12:02:46;;;;;;;12.90;7.07;;;39.60;37.20;;;;;;5095995;28;20082;-75
2021/07/22 12:05:21;;;;;;;12.10;7.78;;;40.00;35.80;;;;;;5077323;28;20028;-74
2021/07/22 12:07:47;;;;;;;16.85;7.20;;;41.20;35.40;;;;;;5095622;28;20081;-75
2021/07/22 12:10:12;;;;;;;13.90;7.40;;;42.60;35.70;;;;;;5095705;28;20024;-77
2021/07/22 12:12:38;;;;;;;15.73;7.30;;;43.30;34.60;;;;;;5077316;28;20488;-76
2021/07/22 12:15:07;;;;;;;13.15;6.45;;;43.00;33.60;;;;;;5095001;28;20044;-76
2021/07/22 12:17:34;;;;;;;14.38;6.43;;;41.70;35.20;;;;;;5095459;28;20028;-75
2021/07/22 12:20:00;;;;;;;14.63;6.88;;;41.70;35.30;;;;;;5095416;28;20480;-76
2021/07/22 12:22:31;;;;;;;14.18;6.60;;;41.90;35.30;;;;;;5095366;28;20503;-77
2021/07/22 12:25:03;;;;;;;12.13;6.95;;;42.60;33.60;;;;;;5095236;28;20496;-76
2021/07/22 12:27:54;;;;;;;16.30;6.63;;;42.20;33.60;;;;;;5095273;28;20102;-75
2021/07/22 12:30:30;;;;;;;14.35;6.68;;;41.30;33.50;;;;;;5076730;28;20424;-76
2021/07/22 12:33:05;;;;;;;14.27;7.07;;;38.40;36.90;;;;;;5095509;28;20021;-75
2021/07/22 12:35:32;;;;;;;14.85;6.85;;;36.80;39.60;;;;;;5076932;28;20050;-77
2021/07/22 12:38:03;;;;;;;24.58;8.60;;;36.60;39.10;;;;;;5076910;28;20043;-75